Time;durP1;ratioP1;P1;durP2;ratioP2;P2;SDS_P1;SDS_P2;PMS_P1;PMS_P2;Temp;Humidity;BMP_temperature;BMP_pressure;BME280_temperature;BME280_humidity;BME280_pressure;Samples;Min_cycle;Max_cycle;Signal;HPM_P1;HPM_P2
2023/12/10 00:00:40;;;;;;;63.95;31.42;;;18.90;99.90;;;;;;4983052;28;20551;-65
2023/12/10 00:03:06;;;;;;;64.32;29.63;;;17.50;99.90;;;;;;4984993;28;20110;-64
2023/12/10 00:05:31;;;;;;;68.55;30.48;;;17.80;99.90;;;;;;4983873;28;20053;-64
2023/12/10 00:07:58;;;;;;;60.40;30.70;;;17.80;99.90;;;;;;4985547;28;20049;-64
2023/12/10 00:10:23;;;;;;;40.72;25.67;;;17.70;99.90;;;;;;4980797;28;20088;-65
2023/12/10 00:12:49;;;;;;;40.53;28.40;;;17.80;99.90;;;;;;4999622;28;20054;-64
2023/12/10 00:15:14;;;;;;;64.75;31.98;;;17.70;99.90;;;;;;4986379;28;20096;-65
2023/12/10 00:17:40;;;;;;;50.25;30.83;;;17.60;99.90;;;;;;4983981;28;20040;-65
2023/12/10 00:20:06;;;;;;;76.82;39.33;;;17.70;99.90;;;;;;4984803;28;20042;-65
2023/12/10 00:22:32;;;;;;;63.55;40.20;;;17.60;99.90;;;;;;4984893;28;20485;-65
2023/12/10 00:24:57;;;;;;;95.93;39.95;;;17.50;99.90;;;;;;4984747;28;20129;-65
2023/12/10 00:27:23;;;;;;;85.25;40.05;;;17.90;99.90;;;;;;4984356;28;20057;-65
2023/12/10 00:29:48;;;;;;;74.68;41.50;;;17.70;99.90;;;;;;4983003;28;20137;-65
2023/12/10 00:32:14;;;;;;;58.13;34.50;;;17.80;99.90;;;;;;4979426;28;20089;-65
2023/12/10 00:34:40;;;;;;;88.30;42.20;;;17.70;99.90;;;;;;4984199;28;20042;-65
2023/12/10 00:37:05;;;;;;;87.75;39.25;;;18.50;99.90;;;;;;4985945;28;20554;-65
2023/12/10 00:39:31;;;;;;;88.40;40.25;;;17.90;99.90;;;;;;4984500;28;20261;-65
2023/12/10 00:41:56;;;;;;;87.28;39.80;;;17.60;99.90;;;;;;4984186;28;20507;-64
2023/12/10 00:44:22;;;;;;;78.68;37.67;;;17.50;99.90;;;;;;4984526;28;20580;-65
2023/12/10 00:46:47;;;;;;;83.03;40.55;;;17.50;99.90;;;;;;5000904;28;20452;-65
2023/12/10 00:49:13;;;;;;;91.63;40.72;;;17.70;99.90;;;;;;4984658;28;20049;-65
2023/12/10 00:51:38;;;;;;;55.03;32.63;;;17.80;99.90;;;;;;4998752;28;20081;-62
2023/12/10 00:54:06;;;;;;;66.05;32.63;;;17.60;99.90;;;;;;4994869;28;20093;-62
2023/12/10 00:56:32;;;;;;;63.28;32.78;;;17.60;99.90;;;;;;4989888;28;20405;-63
2023/12/10 00:58:57;;;;;;;97.82;39.40;;;18.50;99.90;;;;;;4991497;28;20050;-63
2023/12/10 01:01:23;;;;;;;60.38;30.50;;;18.20;99.90;;;;;;4991519;28;20133;-62
2023/12/10 01:03:49;;;;;;;43.22;30.00;;;17.60;99.90;;;;;;4990811;28;20085;-62
2023/12/10 01:06:15;;;;;;;85.95;37.22;;;17.70;99.90;;;;;;4990940;28;20064;-62
2023/12/10 01:08:40;;;;;;;85.85;36.72;;;18.90;99.90;;;;;;5003901;28;20121;-63
2023/12/10 01:11:06;;;;;;;58.72;28.23;;;17.60;99.90;;;;;;4989983;28;20042;-63
2023/12/10 01:13:32;;;;;;;77.10;31.90;;;17.60;99.90;;;;;;5006009;28;20088;-62
2023/12/10 01:15:57;;;;;;;87.82;32.22;;;17.50;99.90;;;;;;4996547;28;20508;-63
2023/12/10 01:18:23;;;;;;;83.07;32.85;;;17.60;99.90;;;;;;4991642;28;20050;-64
2023/12/10 01:20:49;;;;;;;53.28;26.38;;;17.30;99.90;;;;;;4994093;28;20964;-63
2023/12/10 01:23:15;;;;;;;71.50;33.65;;;17.30;99.90;;;;;;5000113;28;20465;-63
2023/12/10 01:25:43;;;;;;;53.60;28.35;;;17.20;99.90;;;;;;4989377;28;20046;-63
2023/12/10 01:28:10;;;;;;;47.80;27.10;;;17.20;99.90;;;;;;4989393;28;20043;-63
2023/12/10 01:30:36;;;;;;;83.63;34.85;;;17.60;99.90;;;;;;4988884;28;20046;-63
2023/12/10 01:33:02;;;;;;;83.55;39.65;;;17.60;99.90;;;;;;4989184;28;20038;-62
2023/12/10 01:35:28;;;;;;;86.57;35.65;;;17.50;99.90;;;;;;5006109;28;20045;-63
2023/12/10 01:37:54;;;;;;;89.45;33.20;;;17.60;99.90;;;;;;4988882;28;20393;-62
2023/12/10 01:40:19;;;;;;;76.65;30.70;;;17.80;99.90;;;;;;5001288;28;20073;-63
2023/12/10 01:42:46;;;;;;;72.03;33.60;;;17.60;99.90;;;;;;4992938;28;20124;-64
2023/12/10 01:45:12;;;;;;;71.78;36.15;;;17.70;99.90;;;;;;4989173;28;20054;-64
2023/12/10 01:47:45;;;;;;;89.07;31.08;;;17.70;99.90;;;;;;4972368;28;20049;-63
2023/12/10 01:50:12;;;;;;;31.13;25.25;;;17.80;99.90;;;;;;4992097;28;20077;-64
2023/12/10 01:52:42;;;;;;;92.15;30.63;;;17.80;99.90;;;;;;5004830;28;20038;-63
2023/12/10 01:55:09;;;;;;;69.65;30.50;;;17.50;99.90;;;;;;5004889;28;20061;-63
2023/12/10 01:57:36;;;;;;;89.68;32.13;;;17.40;99.90;;;;;;4981063;28;20058;-64
2023/12/10 02:00:05;;;;;;;88.90;33.70;;;17.20;99.90;;;;;;4969263;28;20081;-63
2023/12/10 02:02:35;;;;;;;71.05;30.35;;;17.40;99.90;;;;;;4976122;28;20062;-64
2023/12/10 02:05:07;;;;;;;47.90;24.13;;;17.10;99.90;;;;;;4995868;28;20046;-63
2023/12/10 02:07:33;;;;;;;39.25;23.88;;;17.30;99.90;;;;;;4988474;28;20050;-63
2023/12/10 02:09:59;;;;;;;90.57;30.80;;;17.80;99.90;;;;;;4998819;28;20037;-63
2023/12/10 02:12:26;;;;;;;75.70;30.63;;;19.40;99.90;;;;;;5003070;28;20522;-63
2023/12/10 02:14:52;;;;;;;80.47;30.50;;;17.60;99.90;;;;;;5007560;28;20049;-64
2023/12/10 02:17:17;;;;;;;78.13;29.38;;;17.70;99.90;;;;;;5001967;28;20042;-64
2023/12/10 02:19:43;;;;;;;68.13;31.63;;;17.50;99.90;;;;;;4988320;28;20046;-63
2023/12/10 02:22:13;;;;;;;68.60;28.30;;;19.30;99.90;;;;;;4971796;28;20039;-63
2023/12/10 02:24:55;;;;;;;80.25;31.23;;;17.60;99.90;;;;;;4988272;28;20080;-63
2023/12/10 02:27:21;;;;;;;57.92;21.70;;;17.80;99.90;;;;;;4999511;28;20073;-63
2023/12/10 02:29:49;;;;;;;62.85;22.00;;;19.30;99.90;;;;;;4992461;28;20050;-63
2023/12/10 02:32:14;;;;;;;41.80;21.63;;;17.50;99.90;;;;;;5006295;28;20087;-63
2023/12/10 02:34:40;;;;;;;51.70;22.30;;;17.40;99.90;;;;;;4989415;28;20050;-63
2023/12/10 02:37:06;;;;;;;81.07;27.38;;;17.30;99.90;;;;;;4989526;28;20046;-62
2023/12/10 02:39:31;;;;;;;77.35;27.67;;;17.40;99.90;;;;;;4989447;28;20149;-63
2023/12/10 02:41:57;;;;;;;73.70;27.48;;;17.50;99.90;;;;;;4987410;28;20050;-63
2023/12/10 02:44:22;;;;;;;84.47;27.23;;;17.70;99.90;;;;;;4989192;28;20085;-63
2023/12/10 02:46:48;;;;;;;76.65;27.52;;;17.50;99.90;;;;;;4991356;28;20064;-64
2023/12/10 02:49:14;;;;;;;74.43;26.10;;;18.00;99.90;;;;;;5000707;28;20080;-64
2023/12/10 02:51:39;;;;;;;78.32;28.77;;;17.70;99.90;;;;;;4987697;28;20607;-63
2023/12/10 02:54:05;;;;;;;75.70;26.05;;;17.60;99.90;;;;;;4988814;28;20857;-63
2023/12/10 02:56:31;;;;;;;59.10;19.98;;;17.70;99.90;;;;;;4987432;28;20096;-64
2023/12/10 02:58:57;;;;;;;65.55;20.73;;;17.40;99.90;;;;;;4970461;28;20125;-63
2023/12/10 03:01:22;;;;;;;71.60;25.02;;;17.60;99.90;;;;;;4984089;28;20125;-63
2023/12/10 03:03:48;;;;;;;50.08;17.65;;;17.50;99.90;;;;;;4986508;28;20050;-63
2023/12/10 03:06:13;;;;;;;59.72;23.90;;;17.70;99.90;;;;;;4989118;28;20125;-62
2023/12/10 03:08:39;;;;;;;63.72;24.42;;;17.60;99.90;;;;;;4989017;28;20505;-63
2023/12/10 03:11:05;;;;;;;80.28;24.25;;;17.70;99.90;;;;;;4970892;28;20050;-65
2023/12/10 03:13:30;;;;;;;61.92;24.95;;;17.80;99.90;;;;;;4969666;28;20042;-65
2023/12/10 03:15:56;;;;;;;71.63;23.45;;;18.10;99.90;;;;;;4987536;28;20149;-65
2023/12/10 03:18:21;;;;;;;70.55;23.10;;;17.90;99.90;;;;;;4986392;28;20049;-65
2023/12/10 03:20:47;;;;;;;68.13;23.35;;;18.20;99.90;;;;;;4986215;28;20050;-65
2023/12/10 03:23:12;;;;;;;70.35;23.65;;;18.10;99.90;;;;;;4992151;28;20042;-65
2023/12/10 03:25:38;;;;;;;71.30;25.83;;;18.10;99.90;;;;;;4987652;28;20042;-65
2023/12/10 03:28:04;;;;;;;65.43;25.00;;;17.80;99.90;;;;;;4986108;28;20053;-65
2023/12/10 03:30:29;;;;;;;63.47;25.02;;;17.90;99.90;;;;;;4985658;28;20500;-65
2023/12/10 03:32:55;;;;;;;69.03;24.33;;;18.30;99.90;;;;;;4985460;28;20129;-65
2023/12/10 03:35:20;;;;;;;70.20;26.85;;;18.30;99.90;;;;;;4987008;28;20440;-65
2023/12/10 03:37:46;;;;;;;83.10;25.33;;;17.90;99.90;;;;;;4989695;28;20535;-65
2023/12/10 03:40:12;;;;;;;75.78;27.45;;;18.20;99.90;;;;;;4990078;28;20060;-65
2023/12/10 03:42:37;;;;;;;64.78;27.27;;;18.00;99.90;;;;;;4985141;28;20563;-65
2023/12/10 03:45:03;;;;;;;80.85;25.05;;;18.10;99.90;;;;;;4987192;28;20046;-65
2023/12/10 03:47:29;;;;;;;73.20;27.27;;;18.00;99.90;;;;;;4989838;28;20045;-65
2023/12/10 03:49:55;;;;;;;78.80;25.25;;;18.10;99.90;;;;;;4989505;28;20040;-65
2023/12/10 03:52:20;;;;;;;64.03;25.42;;;18.30;99.90;;;;;;5001303;28;20456;-65
2023/12/10 03:54:46;;;;;;;74.18;26.30;;;18.20;99.90;;;;;;4985735;28;20042;-65
2023/12/10 03:57:11;;;;;;;77.55;25.63;;;18.10;99.90;;;;;;4986011;28;20046;-65
2023/12/10 03:59:37;;;;;;;76.55;26.75;;;18.80;99.90;;;;;;5006582;28;20048;-65
2023/12/10 04:02:03;;;;;;;70.00;25.65;;;18.40;99.90;;;;;;4989161;28;20085;-65
2023/12/10 04:04:28;;;;;;;62.90;25.50;;;18.30;99.90;;;;;;4986787;28;20069;-65
2023/12/10 04:06:54;;;;;;;59.83;23.92;;;18.30;99.90;;;;;;5001791;28;20509;-65
2023/12/10 04:09:20;;;;;;;54.70;25.73;;;18.40;99.90;;;;;;4985637;28;20499;-65
2023/12/10 04:11:46;;;;;;;60.35;25.42;;;18.50;99.90;;;;;;4985147;28;20672;-65
2023/12/10 04:14:12;;;;;;;60.50;27.45;;;18.50;99.90;;;;;;4986501;28;20117;-65
2023/12/10 04:16:39;;;;;;;75.53;26.48;;;18.50;99.90;;;;;;4984957;28;20208;-65
2023/12/10 04:19:04;;;;;;;67.13;26.67;;;18.40;99.90;;;;;;5002069;28;20034;-65
2023/12/10 04:21:30;;;;;;;66.95;25.88;;;18.50;99.90;;;;;;4993907;28;20068;-64
2023/12/10 04:23:56;;;;;;;60.08;28.25;;;18.60;99.90;;;;;;4985022;28;20050;-64
2023/12/10 04:26:21;;;;;;;66.38;28.77;;;18.50;99.90;;;;;;4985024;28;20046;-64
2023/12/10 04:28:47;;;;;;;56.97;29.20;;;19.20;99.90;;;;;;5021333;28;20085;-63
2023/12/10 04:31:13;;;;;;;60.65;28.05;;;18.50;99.90;;;;;;4995211;28;20050;-64
2023/12/10 04:33:39;;;;;;;70.22;30.38;;;18.10;99.90;;;;;;4990492;28;20134;-64
2023/12/10 04:36:05;;;;;;;58.13;28.42;;;18.30;99.90;;;;;;4986889;28;20149;-64
2023/12/10 04:38:31;;;;;;;67.70;29.95;;;18.50;99.90;;;;;;4985182;28;20112;-64
2023/12/10 04:40:57;;;;;;;59.65;32.85;;;18.50;99.90;;;;;;4986474;28;20444;-64
2023/12/10 04:43:22;;;;;;;71.85;30.02;;;18.30;99.90;;;;;;4978457;28;20058;-64
2023/12/10 04:45:48;;;;;;;69.20;29.40;;;18.10;99.90;;;;;;4986650;28;20076;-63
2023/12/10 04:48:14;;;;;;;73.00;30.65;;;18.10;99.90;;;;;;4999131;28;20041;-64
2023/12/10 04:50:40;;;;;;;66.32;31.52;;;18.70;99.90;;;;;;4992031;28;20058;-64
2023/12/10 04:53:06;;;;;;;70.07;30.27;;;18.60;99.90;;;;;;4985982;28;20050;-64
2023/12/10 04:55:32;;;;;;;64.60;30.10;;;18.80;99.90;;;;;;4987277;28;20046;-63
2023/12/10 04:57:58;;;;;;;65.80;28.83;;;18.30;99.90;;;;;;4986189;28;20043;-64
2023/12/10 05:00:24;;;;;;;60.30;33.05;;;18.50;99.90;;;;;;5000903;28;20047;-63
2023/12/10 05:02:50;;;;;;;64.00;29.67;;;18.30;99.90;;;;;;4982287;28;20097;-63
2023/12/10 05:05:16;;;;;;;65.03;33.17;;;18.50;99.90;;;;;;4986076;28;20149;-64
2023/12/10 05:07:42;;;;;;;61.35;30.98;;;18.70;99.90;;;;;;4986104;28;20072;-63
2023/12/10 05:10:08;;;;;;;60.92;28.90;;;18.60;99.90;;;;;;4986231;28;20050;-63
2023/12/10 05:12:34;;;;;;;59.60;27.95;;;18.00;99.90;;;;;;4983917;28;20073;-63
2023/12/10 05:14:59;;;;;;;57.08;27.55;;;18.20;99.90;;;;;;5001431;28;20670;-64
2023/12/10 05:17:25;;;;;;;52.90;30.75;;;20.00;99.90;;;;;;4984581;28;20054;-64
2023/12/10 05:19:51;;;;;;;55.28;27.58;;;20.20;99.90;;;;;;4984872;28;20447;-63
2023/12/10 05:22:16;;;;;;;43.95;28.52;;;19.50;99.90;;;;;;4985738;28;20505;-64
2023/12/10 05:24:42;;;;;;;58.85;29.92;;;18.50;99.90;;;;;;4986424;28;20038;-64
2023/12/10 05:27:08;;;;;;;69.28;31.80;;;18.60;99.90;;;;;;4987900;28;20045;-63
2023/12/10 05:29:34;;;;;;;60.25;32.75;;;18.70;99.90;;;;;;4986112;28;20038;-63
2023/12/10 05:31:59;;;;;;;49.67;30.45;;;18.50;99.90;;;;;;4986001;28;20077;-63
2023/12/10 05:34:25;;;;;;;53.25;31.42;;;18.20;99.90;;;;;;4984676;28;20404;-63
2023/12/10 05:36:51;;;;;;;48.78;31.52;;;18.40;99.90;;;;;;4984711;28;20432;-64
2023/12/10 05:39:16;;;;;;;47.28;30.70;;;18.00;99.90;;;;;;4998783;28;20046;-63
2023/12/10 05:41:42;;;;;;;56.45;29.42;;;18.60;99.90;;;;;;4982986;28;20057;-63
2023/12/10 05:44:07;;;;;;;42.20;27.98;;;18.60;99.90;;;;;;4989191;28;20093;-63
2023/12/10 05:46:34;;;;;;;42.28;30.77;;;17.90;99.90;;;;;;4988314;28;20493;-63
2023/12/10 05:49:00;;;;;;;49.50;29.75;;;18.00;99.90;;;;;;5004137;28;21209;-63
2023/12/10 05:51:26;;;;;;;40.58;29.15;;;18.50;99.90;;;;;;4989165;28;20052;-64
2023/12/10 05:53:51;;;;;;;42.95;29.98;;;18.20;99.90;;;;;;4989052;28;20050;-63
2023/12/10 05:56:17;;;;;;;40.00;30.52;;;18.40;99.90;;;;;;4988903;28;20042;-63
2023/12/10 05:58:43;;;;;;;36.85;27.98;;;17.90;99.90;;;;;;4987829;28;20073;-63
2023/12/10 06:01:08;;;;;;;39.47;26.08;;;18.10;99.90;;;;;;4988946;28;20081;-64
2023/12/10 06:03:34;;;;;;;40.97;28.02;;;19.50;99.90;;;;;;4988938;28;20057;-63
2023/12/10 06:05:59;;;;;;;57.35;31.23;;;18.80;99.90;;;;;;4989403;28;20042;-63
2023/12/10 06:08:25;;;;;;;74.03;33.75;;;17.80;99.90;;;;;;4988986;28;20047;-63
2023/12/10 06:10:51;;;;;;;75.20;33.60;;;20.90;99.90;;;;;;4979372;28;20461;-63
2023/12/10 06:13:16;;;;;;;66.57;25.15;;;18.60;99.90;;;;;;4975956;28;20091;-64
2023/12/10 06:15:43;;;;;;;72.38;26.05;;;18.40;99.90;;;;;;4988802;28;20054;-64
2023/12/10 06:18:09;;;;;;;55.05;22.58;;;17.90;99.90;;;;;;4987167;28;20065;-64
2023/12/10 06:20:35;;;;;;;59.33;25.90;;;18.50;99.90;;;;;;4988987;28;20046;-64
2023/12/10 06:23:01;;;;;;;54.85;26.10;;;18.50;99.90;;;;;;4987308;28;20062;-64
2023/12/10 06:25:27;;;;;;;62.72;24.13;;;19.90;99.90;;;;;;4985122;28;20109;-64
2023/12/10 06:27:54;;;;;;;51.80;25.75;;;18.40;99.90;;;;;;4986458;28;20049;-63
2023/12/10 06:30:19;;;;;;;51.38;25.05;;;18.00;99.90;;;;;;4988005;28;20103;-64
2023/12/10 06:32:45;;;;;;;46.67;24.42;;;17.90;99.90;;;;;;5002875;28;20050;-63
2023/12/10 06:35:11;;;;;;;51.10;28.85;;;18.60;99.90;;;;;;4988417;28;20047;-63
2023/12/10 06:37:37;;;;;;;53.03;22.25;;;18.00;99.90;;;;;;5002929;28;20108;-64
2023/12/10 06:40:05;;;;;;;55.10;28.45;;;18.40;99.90;;;;;;4983365;28;20050;-63
2023/12/10 06:42:32;;;;;;;44.45;28.20;;;18.20;99.90;;;;;;4982675;28;20093;-64
2023/12/10 06:44:57;;;;;;;51.40;30.67;;;17.90;99.90;;;;;;4974280;28;20035;-63
2023/12/10 06:47:23;;;;;;;54.33;31.52;;;19.00;99.90;;;;;;5002321;28;20508;-63
2023/12/10 06:49:48;;;;;;;50.60;31.05;;;18.50;99.90;;;;;;4987622;28;20081;-64
2023/12/10 06:52:14;;;;;;;53.35;31.10;;;20.80;99.90;;;;;;4988192;28;20054;-62
2023/12/10 06:54:40;;;;;;;54.13;28.65;;;18.30;99.90;;;;;;4988670;28;20053;-62
2023/12/10 06:57:05;;;;;;;58.60;29.60;;;21.00;99.90;;;;;;4974531;28;20043;-62
2023/12/10 06:59:31;;;;;;;55.75;28.88;;;20.00;99.90;;;;;;4984737;28;20066;-62
2023/12/10 07:01:56;;;;;;;60.70;28.45;;;17.70;99.90;;;;;;4978227;28;20090;-63
2023/12/10 07:04:22;;;;;;;58.05;29.33;;;20.10;99.90;;;;;;5000842;28;20111;-62
2023/12/10 07:06:48;;;;;;;52.58;26.83;;;19.10;99.90;;;;;;5001282;28;20370;-62
2023/12/10 07:09:13;;;;;;;52.60;28.83;;;18.20;99.90;;;;;;4987426;28;20124;-63
2023/12/10 07:11:39;;;;;;;58.45;26.55;;;18.10;99.90;;;;;;4985234;28;20507;-62
2023/12/10 07:14:06;;;;;;;60.28;27.55;;;17.40;99.90;;;;;;4983392;28;20165;-63
2023/12/10 07:16:31;;;;;;;51.20;28.33;;;17.50;99.90;;;;;;4978247;28;20129;-62
2023/12/10 07:18:57;;;;;;;67.57;28.20;;;18.00;99.90;;;;;;4984633;28;20030;-63
2023/12/10 07:21:22;;;;;;;51.00;27.77;;;19.80;99.90;;;;;;4987158;28;20500;-63
2023/12/10 07:23:48;;;;;;;58.50;33.22;;;18.30;99.90;;;;;;4979349;28;20065;-62
2023/12/10 07:26:16;;;;;;;59.67;30.55;;;18.60;99.90;;;;;;4985671;28;20046;-62
2023/12/10 07:28:41;;;;;;;49.20;27.63;;;18.40;99.90;;;;;;4973694;28;20097;-62
2023/12/10 07:31:07;;;;;;;56.22;29.38;;;18.30;99.90;;;;;;4978733;28;20461;-63
2023/12/10 07:33:33;;;;;;;55.83;27.95;;;18.10;99.90;;;;;;4986899;28;20054;-63
2023/12/10 07:35:59;;;;;;;48.65;26.42;;;17.90;99.90;;;;;;4977080;28;21687;-64
2023/12/10 07:38:24;;;;;;;53.45;28.15;;;18.60;99.90;;;;;;4983483;28;20062;-62
2023/12/10 07:40:50;;;;;;;53.53;25.90;;;21.60;99.90;;;;;;4981770;28;20499;-62
2023/12/10 07:43:15;;;;;;;59.65;28.52;;;18.50;99.90;;;;;;4975798;28;20050;-62
2023/12/10 07:45:41;;;;;;;53.67;27.30;;;18.40;99.90;;;;;;4983717;28;20042;-62
2023/12/10 07:48:06;;;;;;;48.22;26.75;;;18.50;99.90;;;;;;4985126;28;20061;-62
2023/12/10 07:50:32;;;;;;;51.47;24.33;;;19.30;99.90;;;;;;4977626;28;20133;-62
2023/12/10 07:52:58;;;;;;;49.50;22.08;;;19.00;99.90;;;;;;4986328;28;20043;-63
2023/12/10 07:55:24;;;;;;;54.85;23.95;;;18.70;99.90;;;;;;4987290;28;20039;-63
2023/12/10 07:57:49;;;;;;;48.30;24.52;;;18.30;99.90;;;;;;4980518;28;20489;-62
2023/12/10 08:00:15;;;;;;;45.35;23.85;;;18.50;99.90;;;;;;4980064;28;20042;-63
2023/12/10 08:02:41;;;;;;;53.05;23.15;;;18.30;99.90;;;;;;4993088;28;20046;-63
2023/12/10 08:05:07;;;;;;;52.47;23.95;;;18.20;99.90;;;;;;4977283;28;20046;-62
2023/12/10 08:07:33;;;;;;;48.88;22.95;;;18.20;99.90;;;;;;4984977;28;20034;-63
2023/12/10 08:09:58;;;;;;;42.60;22.00;;;18.30;99.90;;;;;;4984042;28;20390;-63
2023/12/10 08:12:24;;;;;;;44.20;22.25;;;18.70;99.90;;;;;;4991872;28;20040;-62
2023/12/10 08:14:49;;;;;;;44.30;22.10;;;18.90;99.90;;;;;;4986894;28;20083;-62
2023/12/10 08:17:15;;;;;;;37.38;24.90;;;18.90;99.90;;;;;;4984259;28;20045;-63
2023/12/10 08:19:40;;;;;;;43.33;19.42;;;18.50;99.90;;;;;;4982461;28;20038;-63
2023/12/10 08:22:06;;;;;;;47.53;20.85;;;18.90;99.90;;;;;;4987624;28;20034;-62
2023/12/10 08:24:32;;;;;;;39.42;21.25;;;19.40;99.90;;;;;;4998272;28;20046;-63
2023/12/10 08:26:58;;;;;;;46.15;21.35;;;18.90;99.90;;;;;;4987592;28;20050;-63
2023/12/10 08:29:23;;;;;;;46.53;20.58;;;18.40;99.90;;;;;;4987168;28;20038;-63
2023/12/10 08:31:50;;;;;;;39.97;20.40;;;18.90;99.90;;;;;;4985406;28;20065;-63
2023/12/10 08:34:15;;;;;;;43.47;22.38;;;18.30;99.90;;;;;;4989935;28;20088;-62
2023/12/10 08:36:41;;;;;;;43.13;23.35;;;19.80;99.90;;;;;;4986551;28;20038;-62
2023/12/10 08:39:06;;;;;;;45.38;26.13;;;18.80;99.90;;;;;;4987699;28;20046;-62
2023/12/10 08:41:32;;;;;;;43.42;26.67;;;19.00;99.90;;;;;;4987349;28;20045;-62
2023/12/10 08:43:58;;;;;;;46.17;26.65;;;18.90;99.90;;;;;;4981209;28;20493;-67
2023/12/10 08:46:23;;;;;;;51.45;29.52;;;19.10;99.90;;;;;;4969243;28;20493;-64
2023/12/10 08:48:49;;;;;;;53.85;30.05;;;18.30;99.90;;;;;;4973911;28;20046;-62
2023/12/10 08:51:14;;;;;;;50.55;27.73;;;18.20;99.90;;;;;;4979180;28;20038;-63
2023/12/10 08:53:40;;;;;;;53.15;28.45;;;18.80;99.90;;;;;;4984137;28;20039;-63
2023/12/10 08:56:06;;;;;;;59.13;27.85;;;18.00;99.90;;;;;;4986630;28;20038;-63
2023/12/10 08:58:33;;;;;;;52.85;28.77;;;18.20;99.90;;;;;;4986947;28;20042;-63
2023/12/10 09:00:59;;;;;;;55.63;28.67;;;18.20;99.90;;;;;;4970005;28;20061;-63
2023/12/10 09:03:24;;;;;;;47.17;28.25;;;18.20;99.90;;;;;;4986841;28;20389;-63
2023/12/10 09:05:50;;;;;;;53.25;25.77;;;18.40;99.90;;;;;;4989403;28;20073;-63
2023/12/10 09:08:16;;;;;;;49.15;25.13;;;19.10;99.90;;;;;;4992437;28;20069;-63
2023/12/10 09:10:43;;;;;;;45.83;26.58;;;20.90;99.90;;;;;;4982796;28;20051;-63
2023/12/10 09:13:09;;;;;;;48.60;27.65;;;19.70;99.90;;;;;;4986531;28;20054;-63
2023/12/10 09:15:35;;;;;;;58.80;27.50;;;20.90;99.90;;;;;;4991416;28;20068;-63
2023/12/10 09:18:00;;;;;;;55.97;29.40;;;19.80;99.90;;;;;;4990539;28;20038;-62
2023/12/10 09:20:26;;;;;;;50.28;26.55;;;18.10;99.90;;;;;;4987066;28;20068;-64
2023/12/10 09:22:51;;;;;;;68.25;30.20;;;20.30;99.90;;;;;;4987632;28;20500;-63
2023/12/10 09:25:17;;;;;;;60.05;31.63;;;19.00;99.90;;;;;;4988374;28;20622;-63
2023/12/10 09:27:43;;;;;;;72.57;32.35;;;18.90;99.90;;;;;;4987446;28;20048;-63
2023/12/10 09:30:09;;;;;;;69.65;33.13;;;18.50;99.90;;;;;;4987411;28;20042;-63
2023/12/10 09:32:34;;;;;;;80.13;34.67;;;18.30;99.90;;;;;;4985720;28;20093;-63
2023/12/10 09:35:00;;;;;;;87.05;34.60;;;18.40;99.90;;;;;;5004030;28;20128;-63
2023/12/10 09:37:26;;;;;;;87.90;37.05;;;18.90;99.90;;;;;;4988988;28;20774;-63
2023/12/10 09:39:51;;;;;;;82.75;36.17;;;18.50;99.90;;;;;;4988626;28;20046;-64
2023/12/10 09:42:17;;;;;;;83.57;35.67;;;18.60;99.90;;;;;;4985881;28;20755;-63
2023/12/10 09:44:43;;;;;;;86.10;33.50;;;18.30;99.90;;;;;;4989186;28;20039;-63
2023/12/10 09:47:10;;;;;;;81.20;34.75;;;19.10;99.90;;;;;;4985784;28;20056;-63
2023/12/10 09:49:40;;;;;;;79.93;32.72;;;19.20;99.90;;;;;;4986589;28;20048;-64
2023/12/10 09:52:07;;;;;;;79.30;33.15;;;18.90;99.90;;;;;;4987606;28;20046;-64
2023/12/10 09:54:33;;;;;;;80.68;33.13;;;18.20;99.90;;;;;;4985260;28;20058;-63
2023/12/10 09:56:59;;;;;;;65.05;32.42;;;18.70;99.90;;;;;;4988561;28;20073;-63
2023/12/10 09:59:24;;;;;;;76.63;33.10;;;18.40;99.90;;;;;;4984744;28;20045;-65
2023/12/10 10:01:50;;;;;;;76.35;30.33;;;19.00;99.90;;;;;;4987756;28;20058;-64
2023/12/10 10:04:19;;;;;;;81.22;32.13;;;18.60;99.90;;;;;;4984782;28;20050;-62
2023/12/10 10:06:45;;;;;;;79.00;32.15;;;19.00;99.90;;;;;;4996125;28;20053;-63
2023/12/10 10:09:11;;;;;;;65.25;32.38;;;18.40;99.90;;;;;;4985851;28;20107;-64
2023/12/10 10:11:38;;;;;;;84.97;33.55;;;18.60;99.90;;;;;;4986537;28;20066;-63
2023/12/10 10:14:04;;;;;;;76.78;33.42;;;18.80;99.90;;;;;;4987637;28;20116;-63
2023/12/10 10:16:31;;;;;;;79.63;34.85;;;18.60;99.90;;;;;;4986806;28;20042;-64
2023/12/10 10:18:59;;;;;;;84.63;33.83;;;19.50;99.90;;;;;;4988371;28;20038;-63
2023/12/10 10:21:25;;;;;;;77.13;32.40;;;19.20;99.90;;;;;;4989265;28;20117;-63
2023/12/10 10:23:51;;;;;;;84.97;34.05;;;19.60;99.90;;;;;;4987701;28;20120;-63
2023/12/10 10:26:18;;;;;;;72.97;31.30;;;20.50;99.90;;;;;;4987789;28;20743;-64
2023/12/10 10:28:45;;;;;;;73.40;33.17;;;18.70;99.90;;;;;;4987045;28;20047;-62
2023/12/10 10:31:11;;;;;;;73.78;33.13;;;19.60;99.90;;;;;;4986682;28;20038;-63
2023/12/10 10:33:37;;;;;;;77.97;31.73;;;19.40;99.90;;;;;;4987380;28;20580;-64
2023/12/10 10:36:04;;;;;;;73.38;32.67;;;19.90;99.90;;;;;;4990700;28;20061;-63
2023/12/10 10:38:31;;;;;;;71.32;32.17;;;18.80;99.90;;;;;;4985994;28;20100;-62
2023/12/10 10:41:00;;;;;;;71.80;32.00;;;19.60;99.90;;;;;;4984866;28;20121;-63
2023/12/10 10:43:26;;;;;;;78.07;32.22;;;18.50;99.90;;;;;;4987496;28;20133;-63
2023/12/10 10:45:56;;;;;;;72.90;31.45;;;18.70;99.90;;;;;;4985984;28;20661;-64
2023/12/10 10:48:25;;;;;;;75.43;31.85;;;19.80;99.90;;;;;;4986638;28;20046;-63
2023/12/10 10:50:52;;;;;;;81.90;31.63;;;18.90;99.90;;;;;;4989121;28;20046;-62
2023/12/10 10:53:18;;;;;;;83.22;34.30;;;19.00;99.90;;;;;;4989097;28;20046;-63
2023/12/10 10:55:46;;;;;;;71.53;31.85;;;19.30;99.90;;;;;;4986314;28;20082;-63
2023/12/10 10:58:26;;;;;;;88.40;34.53;;;19.20;99.90;;;;;;4984624;28;20100;-63
2023/12/10 11:00:52;;;;;;;76.25;32.13;;;19.00;99.90;;;;;;4988993;28;20042;-63
2023/12/10 11:03:17;;;;;;;71.78;31.88;;;18.60;99.90;;;;;;4989749;28;20089;-63
2023/12/10 11:05:44;;;;;;;74.75;31.42;;;18.40;99.90;;;;;;4989714;28;20089;-63
2023/12/10 11:08:11;;;;;;;70.00;31.38;;;19.20;99.90;;;;;;4989717;28;20496;-63
2023/12/10 11:10:44;;;;;;;72.10;32.92;;;18.90;99.90;;;;;;4988582;28;20516;-63
2023/12/10 11:13:09;;;;;;;85.65;32.92;;;18.80;99.90;;;;;;4999276;28;20042;-63
2023/12/10 11:15:35;;;;;;;80.28;32.35;;;18.50;99.90;;;;;;4971608;28;20049;-64
2023/12/10 11:18:02;;;;;;;79.57;33.17;;;18.70;99.90;;;;;;4986511;28;20038;-63
2023/12/10 11:20:31;;;;;;;80.10;30.67;;;19.10;99.90;;;;;;4988942;28;20536;-63
2023/12/10 11:22:57;;;;;;;69.20;30.02;;;19.10;99.90;;;;;;4979509;28;20038;-63
2023/12/10 11:25:23;;;;;;;79.18;29.00;;;18.50;99.90;;;;;;4969702;28;20043;-63
2023/12/10 11:27:48;;;;;;;75.03;29.73;;;19.20;99.90;;;;;;4981133;28;20512;-64
2023/12/10 11:30:14;;;;;;;70.13;27.23;;;18.30;99.90;;;;;;4977591;28;20445;-63
2023/12/10 11:32:39;;;;;;;71.22;29.38;;;18.70;99.90;;;;;;5001202;28;20052;-62
2023/12/10 11:35:05;;;;;;;66.38;27.10;;;18.90;99.90;;;;;;4983685;28;20058;-65
2023/12/10 11:37:31;;;;;;;68.88;27.83;;;18.30;99.90;;;;;;4988234;28;20042;-64
2023/12/10 11:39:57;;;;;;;63.78;27.45;;;18.80;99.90;;;;;;4987771;28;20261;-65
2023/12/10 11:42:22;;;;;;;75.90;26.77;;;18.50;99.90;;;;;;4988427;28;20053;-64
2023/12/10 11:44:48;;;;;;;70.60;28.05;;;18.40;99.90;;;;;;4986866;28;20040;-63
2023/12/10 11:47:13;;;;;;;76.10;27.65;;;19.00;99.90;;;;;;4979269;28;20152;-63
2023/12/10 11:49:39;;;;;;;65.68;26.92;;;18.80;99.90;;;;;;4987267;28;20409;-64
2023/12/10 11:52:05;;;;;;;72.38;26.90;;;19.20;99.90;;;;;;4985194;28;20045;-64
2023/12/10 11:54:30;;;;;;;66.38;28.17;;;19.50;99.90;;;;;;4982998;28;20445;-64
2023/12/10 11:56:57;;;;;;;67.10;27.60;;;18.50;99.90;;;;;;4988957;28;20962;-64
2023/12/10 11:59:23;;;;;;;72.28;26.15;;;19.00;99.90;;;;;;4987691;28;20074;-65
2023/12/10 12:01:50;;;;;;;70.47;25.52;;;19.40;99.90;;;;;;4984120;28;20766;-64
2023/12/10 12:04:15;;;;;;;76.57;25.60;;;19.50;99.90;;;;;;4982424;28;20076;-63
2023/12/10 12:06:43;;;;;;;61.33;25.42;;;18.50;99.90;;;;;;4986058;28;20050;-64
2023/12/10 12:09:14;;;;;;;64.38;24.42;;;18.60;99.90;;;;;;4983277;28;20425;-63
2023/12/10 12:11:40;;;;;;;58.22;25.35;;;19.20;99.90;;;;;;4984659;28;20058;-63
2023/12/10 12:14:05;;;;;;;65.22;27.70;;;19.40;99.90;;;;;;4985028;28;20049;-63
2023/12/10 12:16:31;;;;;;;72.78;26.98;;;18.90;99.90;;;;;;4983123;28;20047;-64
2023/12/10 12:18:56;;;;;;;68.30;26.48;;;19.40;99.90;;;;;;4998786;28;20493;-63
2023/12/10 12:21:22;;;;;;;68.70;26.58;;;19.00;99.90;;;;;;4984295;28;20493;-63